Terminal Aerodrome Forecast
Issued by NWS Grand Forks, ND

Home | Current Version | Previous Version | Graphics & Text | Print | Product List | Glossary On
Versions: 1 2 3 4 5 6 7 8 9 10 11 12 13 14 15 16 17 18 19 20 21 22
000
FTUS43 KFGF 200500
TAFGFK
TAF
KGFK 200520Z 2006/2106 32010KT P6SM SCT015 SCT100
      TEMPO 2006/2008 BKN015
     FM201200 25007KT P6SM BKN250
     FM201800 30015KT P6SM VCSH BKN060=

USA.gov is the U.S. government's official web portal to all federal, state and local government web resources and services.